sensor_id;sensor_type;location;lat;lon;timestamp;pressure;altitude;pressure_sealevel;temperature;humidity
49827;BME280;35715;51.570;6.036;2023-06-22T00:01:09;101717.13;;;23.11;59.76
49827;BME280;35715;51.570;6.036;2023-06-22T00:03:35;101717.81;;;23.07;60.28
49827;BME280;35715;51.570;6.036;2023-06-22T00:06:01;101723.91;;;23.04;60.78
49827;BME280;35715;51.570;6.036;2023-06-22T00:08:26;101733.38;;;22.99;60.85
49827;BME280;35715;51.570;6.036;2023-06-22T00:10:52;101741.06;;;22.92;61.51
49827;BME280;35715;51.570;6.036;2023-06-22T00:13:17;101739.16;;;22.88;61.64
49827;BME280;35715;51.570;6.036;2023-06-22T00:15:56;101732.09;;;22.85;61.96
49827;BME280;35715;51.570;6.036;2023-06-22T00:18:21;101731.16;;;22.84;62.28
49827;BME280;35715;51.570;6.036;2023-06-22T00:20:47;101729.44;;;22.85;62.13
49827;BME280;35715;51.570;6.036;2023-06-22T00:23:12;101734.91;;;22.91;62.40
49827;BME280;35715;51.570;6.036;2023-06-22T00:25:40;101736.84;;;22.97;62.41
49827;BME280;35715;51.570;6.036;2023-06-22T00:28:06;101744.94;;;23.03;62.57
49827;BME280;35715;51.570;6.036;2023-06-22T00:30:33;101743.19;;;23.03;62.58
49827;BME280;35715;51.570;6.036;2023-06-22T00:32:59;101735.19;;;23.00;63.12
49827;BME280;35715;51.570;6.036;2023-06-22T00:35:32;101741.19;;;22.96;63.37
49827;BME280;35715;51.570;6.036;2023-06-22T00:37:59;101741.88;;;22.91;62.94
49827;BME280;35715;51.570;6.036;2023-06-22T00:40:31;101739.75;;;22.77;63.38
49827;BME280;35715;51.570;6.036;2023-06-22T00:42:56;101737.75;;;22.70;64.01
49827;BME280;35715;51.570;6.036;2023-06-22T00:48:30;101722.50;;;22.60;63.59
49827;BME280;35715;51.570;6.036;2023-06-22T00:50:56;101718.19;;;22.62;63.71
49827;BME280;35715;51.570;6.036;2023-06-22T00:53:21;101718.19;;;22.62;63.83
49827;BME280;35715;51.570;6.036;2023-06-22T00:55:49;101722.47;;;22.58;64.52
49827;BME280;35715;51.570;6.036;2023-06-22T00:58:18;101726.94;;;22.61;64.81
49827;BME280;35715;51.570;6.036;2023-06-22T01:00:47;101724.41;;;22.64;64.97
49827;BME280;35715;51.570;6.036;2023-06-22T01:03:12;101726.16;;;22.65;64.70
49827;BME280;35715;51.570;6.036;2023-06-22T01:05:41;101721.91;;;22.68;64.73
49827;BME280;35715;51.570;6.036;2023-06-22T01:10:54;101715.97;;;22.74;64.68
49827;BME280;35715;51.570;6.036;2023-06-22T01:13:36;101714.84;;;22.67;64.31
49827;BME280;35715;51.570;6.036;2023-06-22T01:16:31;101719.13;;;22.64;64.32
49827;BME280;35715;51.570;6.036;2023-06-22T01:19:00;101711.19;;;22.62;64.33
49827;BME280;35715;51.570;6.036;2023-06-22T01:21:30;101712.81;;;22.59;64.62
49827;BME280;35715;51.570;6.036;2023-06-22T01:24:15;101703.94;;;22.55;64.80
49827;BME280;35715;51.570;6.036;2023-06-22T01:29:39;101705.41;;;22.45;65.10
49827;BME280;35715;51.570;6.036;2023-06-22T01:32:06;101692.34;;;22.48;65.05
49827;BME280;35715;51.570;6.036;2023-06-22T01:34:33;101693.03;;;22.43;64.75
49827;BME280;35715;51.570;6.036;2023-06-22T01:37:03;101699.22;;;22.45;64.99
49827;BME280;35715;51.570;6.036;2023-06-22T01:39:29;101700.38;;;22.27;65.58
49827;BME280;35715;51.570;6.036;2023-06-22T01:41:55;101702.34;;;22.33;65.03
49827;BME280;35715;51.570;6.036;2023-06-22T01:44:22;101699.94;;;22.39;65.78
49827;BME280;35715;51.570;6.036;2023-06-22T01:47:12;101701.75;;;22.42;66.35
49827;BME280;35715;51.570;6.036;2023-06-22T01:49:40;101701.84;;;22.45;65.93
49827;BME280;35715;51.570;6.036;2023-06-22T01:52:06;101695.91;;;22.50;65.82
49827;BME280;35715;51.570;6.036;2023-06-22T01:54:32;101704.78;;;22.54;65.56
49827;BME280;35715;51.570;6.036;2023-06-22T01:56:59;101697.81;;;22.55;65.40
49827;BME280;35715;51.570;6.036;2023-06-22T01:59:25;101695.28;;;22.58;65.40
49827;BME280;35715;51.570;6.036;2023-06-22T02:02:01;101695.31;;;22.59;65.72
49827;BME280;35715;51.570;6.036;2023-06-22T02:04:36;101698.00;;;22.61;65.69
49827;BME280;35715;51.570;6.036;2023-06-22T02:07:14;101696.28;;;22.63;65.91
49827;BME280;35715;51.570;6.036;2023-06-22T02:09:44;101694.72;;;22.68;65.76
49827;BME280;35715;51.570;6.036;2023-06-22T02:12:12;101693.81;;;22.67;65.98
49827;BME280;35715;51.570;6.036;2023-06-22T02:14:39;101695.41;;;22.62;66.07
49827;BME280;35715;51.570;6.036;2023-06-22T02:17:09;101686.41;;;22.56;65.85
49827;BME280;35715;51.570;6.036;2023-06-22T02:19:42;101684.34;;;22.45;65.83
49827;BME280;35715;51.570;6.036;2023-06-22T02:22:07;101677.88;;;22.36;65.93
49827;BME280;35715;51.570;6.036;2023-06-22T02:24:33;101677.66;;;22.29;66.35
49827;BME280;35715;51.570;6.036;2023-06-22T02:27:16;101683.66;;;22.25;66.50
49827;BME280;35715;51.570;6.036;2023-06-22T02:29:42;101678.44;;;22.27;66.71
49827;BME280;35715;51.570;6.036;2023-06-22T02:32:07;101682.75;;;22.25;66.86
49827;BME280;35715;51.570;6.036;2023-06-22T02:34:33;101681.88;;;22.24;66.56
49827;BME280;35715;51.570;6.036;2023-06-22T02:36:59;101681.97;;;22.27;66.54
49827;BME280;35715;51.570;6.036;2023-06-22T02:39:26;101687.09;;;22.23;66.97
49827;BME280;35715;51.570;6.036;2023-06-22T02:41:52;101679.09;;;22.20;66.39
49827;BME280;35715;51.570;6.036;2023-06-22T02:44:19;101678.09;;;22.16;66.58
49827;BME280;35715;51.570;6.036;2023-06-22T02:46:45;101677.78;;;22.07;66.17
49827;BME280;35715;51.570;6.036;2023-06-22T02:49:11;101679.38;;;22.02;67.01
49827;BME280;35715;51.570;6.036;2023-06-22T02:51:39;101668.59;;;21.94;67.06
49827;BME280;35715;51.570;6.036;2023-06-22T02:54:05;101669.38;;;21.91;66.92
49827;BME280;35715;51.570;6.036;2023-06-22T02:56:32;101660.56;;;21.89;67.50
49827;BME280;35715;51.570;6.036;2023-06-22T02:58:57;101664.22;;;21.94;67.85
49827;BME280;35715;51.570;6.036;2023-06-22T03:01:27;101662.63;;;22.00;67.96
49827;BME280;35715;51.570;6.036;2023-06-22T03:03:53;101662.63;;;22.00;67.84
49827;BME280;35715;51.570;6.036;2023-06-22T03:06:20;101660.88;;;21.98;68.13
49827;BME280;35715;51.570;6.036;2023-06-22T03:08:49;101667.84;;;21.98;67.32
49827;BME280;35715;51.570;6.036;2023-06-22T03:11:15;101656.41;;;21.96;67.19
49827;BME280;35715;51.570;6.036;2023-06-22T03:13:40;101656.13;;;21.88;67.20
49827;BME280;35715;51.570;6.036;2023-06-22T03:16:17;101648.66;;;21.75;67.72
49827;BME280;35715;51.570;6.036;2023-06-22T03:18:43;101650.25;;;21.70;67.48
49827;BME280;35715;51.570;6.036;2023-06-22T03:21:08;101648.25;;;21.62;68.29
49827;BME280;35715;51.570;6.036;2023-06-22T03:23:34;101640.25;;;21.59;68.46
49827;BME280;35715;51.570;6.036;2023-06-22T03:26:10;101646.13;;;21.52;68.93
49827;BME280;35715;51.570;6.036;2023-06-22T03:28:36;101648.63;;;21.49;68.60
49827;BME280;35715;51.570;6.036;2023-06-22T03:31:03;101638.19;;;21.51;69.00
49827;BME280;35715;51.570;6.036;2023-06-22T03:33:28;101634.84;;;21.55;69.09
49827;BME280;35715;51.570;6.036;2023-06-22T03:35:54;101625.22;;;21.55;69.17
49827;BME280;35715;51.570;6.036;2023-06-22T03:38:19;101626.91;;;21.53;69.04
49827;BME280;35715;51.570;6.036;2023-06-22T03:40:44;101637.41;;;21.53;68.98
49827;BME280;35715;51.570;6.036;2023-06-22T03:43:10;101632.16;;;21.53;68.83
49827;BME280;35715;51.570;6.036;2023-06-22T03:45:47;101635.38;;;21.46;69.33
49827;BME280;35715;51.570;6.036;2023-06-22T03:48:13;101629.28;;;21.47;69.96
49827;BME280;35715;51.570;6.036;2023-06-22T03:50:38;101633.78;;;21.50;69.65
49827;BME280;35715;51.570;6.036;2023-06-22T03:53:04;101632.16;;;21.53;68.97
49827;BME280;35715;51.570;6.036;2023-06-22T03:55:29;101632.16;;;21.53;69.12
49827;BME280;35715;51.570;6.036;2023-06-22T03:57:55;101634.75;;;21.52;69.13
49827;BME280;35715;51.570;6.036;2023-06-22T04:00:25;101634.78;;;21.53;68.34
49827;BME280;35715;51.570;6.036;2023-06-22T04:02:50;101629.34;;;21.49;68.91
49827;BME280;35715;51.570;6.036;2023-06-22T04:08:42;101628.91;;;21.36;68.44
49827;BME280;35715;51.570;6.036;2023-06-22T04:11:08;101627.16;;;21.37;69.05
49827;BME280;35715;51.570;6.036;2023-06-22T04:13:33;101625.53;;;21.40;68.83
49827;BME280;35715;51.570;6.036;2023-06-22T04:16:01;101626.44;;;21.41;69.23
49827;BME280;35715;51.570;6.036;2023-06-22T04:18:27;101623.53;;;21.33;69.32
49827;BME280;35715;51.570;6.036;2023-06-22T04:20:52;101624.28;;;21.29;70.13
49827;BME280;35715;51.570;6.036;2023-06-22T04:23:17;101623.09;;;21.21;69.89
49827;BME280;35715;51.570;6.036;2023-06-22T04:25:59;101631.59;;;21.14;70.88
49827;BME280;35715;51.570;6.036;2023-06-22T04:28:24;101623.56;;;21.09;69.95
49827;BME280;35715;51.570;6.036;2023-06-22T04:30:50;101621.63;;;21.05;71.38
49827;BME280;35715;51.570;6.036;2023-06-22T04:33:16;101618.31;;;21.09;71.38
49827;BME280;35715;51.570;6.036;2023-06-22T04:35:49;101616.63;;;21.11;71.49
49827;BME280;35715;51.570;6.036;2023-06-22T04:38:16;101614.88;;;21.12;71.78
49827;BME280;35715;51.570;6.036;2023-06-22T04:40:42;101614.72;;;21.07;71.31
49827;BME280;35715;51.570;6.036;2023-06-22T04:43:08;101613.75;;;21.05;71.81
49827;BME280;35715;51.570;6.036;2023-06-22T04:45:35;101608.63;;;21.08;71.48
49827;BME280;35715;51.570;6.036;2023-06-22T04:48:03;101617.38;;;21.08;71.92
49827;BME280;35715;51.570;6.036;2023-06-22T04:50:29;101613.28;;;21.15;71.93
49827;BME280;35715;51.570;6.036;2023-06-22T04:52:54;101614.06;;;21.13;71.50
49827;BME280;35715;51.570;6.036;2023-06-22T04:55:23;101619.28;;;21.13;71.43
49827;BME280;35715;51.570;6.036;2023-06-22T04:57:51;101619.63;;;21.22;72.08
49827;BME280;35715;51.570;6.036;2023-06-22T05:00:20;101632.38;;;21.35;71.97
49827;BME280;35715;51.570;6.036;2023-06-22T05:02:47;101620.72;;;21.28;72.32
49827;BME280;35715;51.570;6.036;2023-06-22T05:05:13;101618.75;;;21.45;71.90
49827;BME280;35715;51.570;6.036;2023-06-22T05:07:43;101619.72;;;21.49;71.27
49827;BME280;35715;51.570;6.036;2023-06-22T05:10:10;101608.44;;;21.50;71.25
49827;BME280;35715;51.570;6.036;2023-06-22T05:12:37;101597.78;;;21.47;71.66
49827;BME280;35715;51.570;6.036;2023-06-22T05:15:04;101610.75;;;21.42;71.97
49827;BME280;35715;51.570;6.036;2023-06-22T05:17:29;101600.56;;;21.50;72.74
49827;BME280;35715;51.570;6.036;2023-06-22T05:19:54;101609.56;;;21.58;72.53
49827;BME280;35715;51.570;6.036;2023-06-22T05:22:21;101614.16;;;21.64;72.01
49827;BME280;35715;51.570;6.036;2023-06-22T05:24:46;101615.41;;;21.75;71.83
49827;BME280;35715;51.570;6.036;2023-06-22T05:27:17;101617.47;;;21.84;71.42
49827;BME280;35715;51.570;6.036;2023-06-22T05:29:42;101620.25;;;21.89;70.71
49827;BME280;35715;51.570;6.036;2023-06-22T05:32:08;101618.56;;;21.91;71.85
49827;BME280;35715;51.570;6.036;2023-06-22T05:34:33;101620.53;;;21.98;72.10
49827;BME280;35715;51.570;6.036;2023-06-22T05:37:00;101632.53;;;22.15;72.48
49827;BME280;35715;51.570;6.036;2023-06-22T05:39:26;101622.34;;;22.26;71.31
49827;BME280;35715;51.570;6.036;2023-06-22T05:41:52;101632.09;;;22.29;71.00
49827;BME280;35715;51.570;6.036;2023-06-22T05:44:18;101635.72;;;22.32;70.96
49827;BME280;35715;51.570;6.036;2023-06-22T05:47:02;101633.03;;;22.31;72.07
49827;BME280;35715;51.570;6.036;2023-06-22T05:49:28;101635.72;;;22.32;71.04
49827;BME280;35715;51.570;6.036;2023-06-22T05:51:57;101627.78;;;22.31;70.82
49827;BME280;35715;51.570;6.036;2023-06-22T05:54:23;101625.25;;;22.34;71.14
49827;BME280;35715;51.570;6.036;2023-06-22T05:56:49;101620.09;;;22.37;70.79
49827;BME280;35715;51.570;6.036;2023-06-22T05:59:15;101624.75;;;22.46;71.04
49827;BME280;35715;51.570;6.036;2023-06-22T06:01:40;101618.53;;;22.42;72.15
49827;BME280;35715;51.570;6.036;2023-06-22T06:04:05;101622.53;;;22.31;71.31
49827;BME280;35715;51.570;6.036;2023-06-22T06:06:36;101624.38;;;22.33;71.58
49827;BME280;35715;51.570;6.036;2023-06-22T06:09:05;101627.78;;;22.31;71.65
49827;BME280;35715;51.570;6.036;2023-06-22T06:11:32;101628.59;;;22.30;72.46
49827;BME280;35715;51.570;6.036;2023-06-22T06:13:58;101632.31;;;22.35;71.83
49827;BME280;35715;51.570;6.036;2023-06-22T06:16:23;101622.03;;;22.43;71.89
49827;BME280;35715;51.570;6.036;2023-06-22T06:18:49;101620.13;;;22.39;71.68
49827;BME280;35715;51.570;6.036;2023-06-22T06:21:15;101625.34;;;22.37;71.13
49827;BME280;35715;51.570;6.036;2023-06-22T06:23:41;101621.84;;;22.37;71.83
49827;BME280;35715;51.570;6.036;2023-06-22T06:26:07;101629.69;;;22.35;71.73
49827;BME280;35715;51.570;6.036;2023-06-22T06:28:33;101634.13;;;22.38;71.20
49827;BME280;35715;51.570;6.036;2023-06-22T06:30:59;101618.63;;;22.45;71.44
49827;BME280;35715;51.570;6.036;2023-06-22T06:33:25;101625.63;;;22.46;71.51
49827;BME280;35715;51.570;6.036;2023-06-22T06:35:50;101627.44;;;22.47;71.97
49827;BME280;35715;51.570;6.036;2023-06-22T06:38:16;101618.47;;;22.41;71.86
49827;BME280;35715;51.570;6.036;2023-06-22T06:40:41;101626.38;;;22.41;71.43
49827;BME280;35715;51.570;6.036;2023-06-22T06:43:06;101622.03;;;22.43;70.97
49827;BME280;35715;51.570;6.036;2023-06-22T06:45:32;101624.56;;;22.40;70.90
49827;BME280;35715;51.570;6.036;2023-06-22T06:47:59;101618.44;;;22.39;71.43
49827;BME280;35715;51.570;6.036;2023-06-22T06:50:25;101616.88;;;22.46;71.53
49827;BME280;35715;51.570;6.036;2023-06-22T06:52:50;101610.63;;;22.42;71.71
49827;BME280;35715;51.570;6.036;2023-06-22T06:55:19;101608.97;;;22.46;72.50
49827;BME280;35715;51.570;6.036;2023-06-22T06:57:45;101619.53;;;22.47;71.97
49827;BME280;35715;51.570;6.036;2023-06-22T07:00:14;101610.13;;;22.56;72.24
49827;BME280;35715;51.570;6.036;2023-06-22T07:02:42;101609.13;;;22.50;72.02
49827;BME280;35715;51.570;6.036;2023-06-22T07:05:14;101611.78;;;22.52;71.46
49827;BME280;35715;51.570;6.036;2023-06-22T07:07:39;101602.94;;;22.48;71.54
49827;BME280;35715;51.570;6.036;2023-06-22T07:10:07;101602.97;;;22.50;71.62
49827;BME280;35715;51.570;6.036;2023-06-22T07:12:32;101601.22;;;22.50;72.09
49827;BME280;35715;51.570;6.036;2023-06-22T07:15:08;101596.25;;;22.60;72.18
49827;BME280;35715;51.570;6.036;2023-06-22T07:17:34;101597.13;;;22.60;71.59
49827;BME280;35715;51.570;6.036;2023-06-22T07:20:00;101601.56;;;22.61;71.71
49827;BME280;35715;51.570;6.036;2023-06-22T07:22:25;101597.22;;;22.63;72.04
49827;BME280;35715;51.570;6.036;2023-06-22T07:24:59;101598.28;;;22.68;71.89
49827;BME280;35715;51.570;6.036;2023-06-22T07:27:24;101601.03;;;22.73;71.39
49827;BME280;35715;51.570;6.036;2023-06-22T07:29:50;101601.88;;;22.72;70.66
49827;BME280;35715;51.570;6.036;2023-06-22T07:32:15;101602.13;;;22.81;70.87
49827;BME280;35715;51.570;6.036;2023-06-22T07:34:41;101607.50;;;22.84;70.62
49827;BME280;35715;51.570;6.036;2023-06-22T07:37:08;101592.84;;;22.93;71.17
49827;BME280;35715;51.570;6.036;2023-06-22T07:39:34;101597.44;;;23.00;71.40
49827;BME280;35715;51.570;6.036;2023-06-22T07:41:59;101584.31;;;23.01;70.44
49827;BME280;35715;51.570;6.036;2023-06-22T07:44:25;101582.69;;;23.07;71.13
49827;BME280;35715;51.570;6.036;2023-06-22T07:46:51;101580.84;;;23.04;70.12
49827;BME280;35715;51.570;6.036;2023-06-22T07:49:17;101577.44;;;23.07;70.16
49827;BME280;35715;51.570;6.036;2023-06-22T07:51:42;101574.13;;;23.12;70.19
49827;BME280;35715;51.570;6.036;2023-06-22T07:54:09;101563.00;;;23.23;70.29
49827;BME280;35715;51.570;6.036;2023-06-22T07:56:34;101557.31;;;23.41;70.21
49827;BME280;35715;51.570;6.036;2023-06-22T07:58:59;101548.72;;;23.83;68.20
49827;BME280;35715;51.570;6.036;2023-06-22T08:01:26;101545.84;;;24.88;64.92
49827;BME280;35715;51.570;6.036;2023-06-22T08:03:52;101540.63;;;24.91;64.78
49827;BME280;35715;51.570;6.036;2023-06-22T08:06:18;101534.22;;;24.79;65.45
49827;BME280;35715;51.570;6.036;2023-06-22T08:08:44;101523.44;;;24.69;65.20
49827;BME280;35715;51.570;6.036;2023-06-22T08:11:13;101525.03;;;24.59;66.26
49827;BME280;35715;51.570;6.036;2023-06-22T08:13:38;101524.94;;;24.56;65.45
49827;BME280;35715;51.570;6.036;2023-06-22T08:16:04;101517.03;;;24.57;65.33
49827;BME280;35715;51.570;6.036;2023-06-22T08:18:29;101512.97;;;24.72;64.72
49827;BME280;35715;51.570;6.036;2023-06-22T08:20:55;101510.22;;;24.67;65.41
49827;BME280;35715;51.570;6.036;2023-06-22T08:23:20;101504.88;;;24.64;64.54
49827;BME280;35715;51.570;6.036;2023-06-22T08:25:50;101504.81;;;24.61;65.96
49827;BME280;35715;51.570;6.036;2023-06-22T08:28:15;101504.78;;;24.59;66.31
49827;BME280;35715;51.570;6.036;2023-06-22T08:30:41;101493.25;;;24.54;65.20
49827;BME280;35715;51.570;6.036;2023-06-22T08:33:06;101489.50;;;24.44;64.97
49827;BME280;35715;51.570;6.036;2023-06-22T08:35:32;101491.00;;;24.32;65.02
49827;BME280;35715;51.570;6.036;2023-06-22T08:37:57;101489.13;;;24.26;65.81
49827;BME280;35715;51.570;6.036;2023-06-22T08:40:24;101477.78;;;24.30;65.06
49827;BME280;35715;51.570;6.036;2023-06-22T08:42:49;101483.63;;;24.15;64.56
49827;BME280;35715;51.570;6.036;2023-06-22T08:45:16;101483.19;;;23.97;65.83
49827;BME280;35715;51.570;6.036;2023-06-22T08:47:42;101478.56;;;23.86;64.74
49827;BME280;35715;51.570;6.036;2023-06-22T08:50:09;101480.41;;;23.90;65.28
49827;BME280;35715;51.570;6.036;2023-06-22T08:52:35;101483.94;;;23.91;66.94
49827;BME280;35715;51.570;6.036;2023-06-22T08:55:01;101477.97;;;23.98;66.00
49827;BME280;35715;51.570;6.036;2023-06-22T08:57:29;101490.16;;;23.95;65.24
49827;BME280;35715;51.570;6.036;2023-06-22T08:59:56;101482.94;;;23.86;65.51
49827;BME280;35715;51.570;6.036;2023-06-22T09:02:24;101478.59;;;23.88;66.32
49827;BME280;35715;51.570;6.036;2023-06-22T09:04:49;101485.06;;;24.02;66.36
49827;BME280;35715;51.570;6.036;2023-06-22T09:07:21;101480.84;;;24.09;65.86
49827;BME280;35715;51.570;6.036;2023-06-22T09:09:48;101484.25;;;24.05;66.08
49827;BME280;35715;51.570;6.036;2023-06-22T09:12:13;101477.22;;;24.05;66.52
49827;BME280;35715;51.570;6.036;2023-06-22T09:14:39;101468.50;;;24.08;66.13
49827;BME280;35715;51.570;6.036;2023-06-22T09:17:05;101458.91;;;24.12;65.28
49827;BME280;35715;51.570;6.036;2023-06-22T09:19:33;101452.03;;;24.18;66.13
49827;BME280;35715;51.570;6.036;2023-06-22T09:21:59;101453.00;;;24.23;66.19
49827;BME280;35715;51.570;6.036;2023-06-22T09:24:25;101454.03;;;24.29;65.43
49827;BME280;35715;51.570;6.036;2023-06-22T09:26:50;101453.91;;;24.24;65.93
49827;BME280;35715;51.570;6.036;2023-06-22T09:29:15;101447.78;;;24.25;65.50
49827;BME280;35715;51.570;6.036;2023-06-22T09:31:41;101450.38;;;24.23;65.79
49827;BME280;35715;51.570;6.036;2023-06-22T09:34:06;101455.69;;;24.25;67.05
49827;BME280;35715;51.570;6.036;2023-06-22T09:36:32;101457.44;;;24.24;67.12
49827;BME280;35715;51.570;6.036;2023-06-22T09:38:57;101458.94;;;24.13;66.71
49827;BME280;35715;51.570;6.036;2023-06-22T09:41:24;101450.13;;;24.11;66.33
49827;BME280;35715;51.570;6.036;2023-06-22T09:43:49;101451.78;;;24.06;65.34
49827;BME280;35715;51.570;6.036;2023-06-22T09:46:15;101456.03;;;24.01;67.05
49827;BME280;35715;51.570;6.036;2023-06-22T09:48:41;101466.41;;;23.93;66.21
49827;BME280;35715;51.570;6.036;2023-06-22T09:51:06;101467.16;;;23.87;66.70
49827;BME280;35715;51.570;6.036;2023-06-22T09:53:32;101458.16;;;23.79;66.60
49827;BME280;35715;51.570;6.036;2023-06-22T09:55:59;101466.00;;;23.76;67.17
49827;BME280;35715;51.570;6.036;2023-06-22T09:58:25;101462.56;;;23.79;68.27
49827;BME280;35715;51.570;6.036;2023-06-22T10:00:50;101464.34;;;23.81;67.83
49827;BME280;35715;51.570;6.036;2023-06-22T10:03:16;101462.66;;;23.83;68.59
49827;BME280;35715;51.570;6.036;2023-06-22T10:05:42;101463.75;;;23.91;68.57
49827;BME280;35715;51.570;6.036;2023-06-22T10:08:08;101463.03;;;23.99;67.75
49827;BME280;35715;51.570;6.036;2023-06-22T10:10:35;101459.53;;;23.98;67.84
49827;BME280;35715;51.570;6.036;2023-06-22T10:13:07;101463.03;;;23.99;68.45
49827;BME280;35715;51.570;6.036;2023-06-22T10:15:33;101467.44;;;23.98;68.58
49827;BME280;35715;51.570;6.036;2023-06-22T10:17:59;101463.78;;;23.93;67.51
49827;BME280;35715;51.570;6.036;2023-06-22T10:20:24;101458.22;;;23.82;68.06
49827;BME280;35715;51.570;6.036;2023-06-22T10:22:51;101454.66;;;23.79;69.18
49827;BME280;35715;51.570;6.036;2023-06-22T10:25:17;101457.88;;;23.67;69.63
49827;BME280;35715;51.570;6.036;2023-06-22T10:27:42;101456.03;;;23.63;70.56
49827;BME280;35715;51.570;6.036;2023-06-22T10:30:09;101460.16;;;23.51;72.79
49827;BME280;35715;51.570;6.036;2023-06-22T10:32:35;101459.78;;;23.37;74.71
49827;BME280;35715;51.570;6.036;2023-06-22T10:35:01;101448.91;;;23.24;75.65
49827;BME280;35715;51.570;6.036;2023-06-22T10:37:26;101446.84;;;23.12;76.22
49827;BME280;35715;51.570;6.036;2023-06-22T10:39:52;101451.72;;;22.98;77.76
49827;BME280;35715;51.570;6.036;2023-06-22T10:42:17;101448.84;;;22.89;78.77
49827;BME280;35715;51.570;6.036;2023-06-22T10:44:43;101450.72;;;22.93;80.87
49827;BME280;35715;51.570;6.036;2023-06-22T10:47:11;101455.22;;;22.97;81.51
49827;BME280;35715;51.570;6.036;2023-06-22T10:49:40;101461.34;;;22.96;82.04
49827;BME280;35715;51.570;6.036;2023-06-22T10:52:08;101451.66;;;22.95;82.87
49827;BME280;35715;51.570;6.036;2023-06-22T10:54:35;101456.00;;;22.93;82.79
49827;BME280;35715;51.570;6.036;2023-06-22T10:57:01;101461.25;;;22.93;83.01
49827;BME280;35715;51.570;6.036;2023-06-22T10:59:27;101465.63;;;22.92;83.78
49827;BME280;35715;51.570;6.036;2023-06-22T11:01:54;101467.41;;;22.93;84.92
49827;BME280;35715;51.570;6.036;2023-06-22T11:04:20;101456.13;;;22.97;85.21
49827;BME280;35715;51.570;6.036;2023-06-22T11:07:09;101464.88;;;22.98;85.80
49827;BME280;35715;51.570;6.036;2023-06-22T11:09:34;101472.78;;;22.98;86.03
49827;BME280;35715;51.570;6.036;2023-06-22T11:12:00;101474.63;;;23.00;86.22
49827;BME280;35715;51.570;6.036;2023-06-22T11:14:25;101472.78;;;22.98;85.54
49827;BME280;35715;51.570;6.036;2023-06-22T11:16:56;101466.59;;;22.96;85.11
49827;BME280;35715;51.570;6.036;2023-06-22T11:19:21;101469.94;;;22.90;87.14
49827;BME280;35715;51.570;6.036;2023-06-22T11:21:47;101471.56;;;22.85;87.50
49827;BME280;35715;51.570;6.036;2023-06-22T11:24:12;101476.78;;;22.83;87.93
49827;BME280;35715;51.570;6.036;2023-06-22T11:26:39;101479.47;;;22.85;88.97
49827;BME280;35715;51.570;6.036;2023-06-22T11:29:04;101469.03;;;22.88;89.71
49827;BME280;35715;51.570;6.036;2023-06-22T11:31:34;101474.16;;;22.83;88.17
49827;BME280;35715;51.570;6.036;2023-06-22T11:33:59;101470.31;;;22.72;88.64
49827;BME280;35715;51.570;6.036;2023-06-22T11:36:33;101462.41;;;22.71;90.88
49827;BME280;35715;51.570;6.036;2023-06-22T11:39:02;101473.75;;;22.68;90.94
49827;BME280;35715;51.570;6.036;2023-06-22T11:41:27;101471.78;;;22.61;89.25
49827;BME280;35715;51.570;6.036;2023-06-22T11:43:53;101469.91;;;22.57;89.35
49827;BME280;35715;51.570;6.036;2023-06-22T11:46:20;101462.97;;;22.60;89.43
49827;BME280;35715;51.570;6.036;2023-06-22T11:48:46;101448.09;;;22.61;89.79
49827;BME280;35715;51.570;6.036;2023-06-22T11:51:11;101443.66;;;22.58;90.61
49827;BME280;35715;51.570;6.036;2023-06-22T11:53:37;101443.59;;;22.57;91.25
49827;BME280;35715;51.570;6.036;2023-06-22T11:56:06;101447.94;;;22.55;90.05
49827;BME280;35715;51.570;6.036;2023-06-22T11:58:32;101433.78;;;22.51;90.56
49827;BME280;35715;51.570;6.036;2023-06-22T12:00:57;101430.25;;;22.49;89.90
49827;BME280;35715;51.570;6.036;2023-06-22T12:03:22;101414.88;;;22.32;89.90
49827;BME280;35715;51.570;6.036;2023-06-22T12:05:51;101398.94;;;22.28;90.46
49827;BME280;35715;51.570;6.036;2023-06-22T12:08:19;101379.53;;;22.23;90.64
49827;BME280;35715;51.570;6.036;2023-06-22T12:10:54;101376.94;;;22.24;90.88
49827;BME280;35715;51.570;6.036;2023-06-22T12:13:19;101377.84;;;22.26;91.35
49827;BME280;35715;51.570;6.036;2023-06-22T12:15:48;101396.75;;;22.43;91.79
49827;BME280;35715;51.570;6.036;2023-06-22T12:18:13;101405.00;;;22.56;93.19
49827;BME280;35715;51.570;6.036;2023-06-22T12:20:41;101404.19;;;22.58;92.16
49827;BME280;35715;51.570;6.036;2023-06-22T12:23:14;101399.84;;;22.60;92.38
49827;BME280;35715;51.570;6.036;2023-06-22T12:25:50;101391.91;;;22.59;91.62
49827;BME280;35715;51.570;6.036;2023-06-22T12:28:15;101392.16;;;22.66;91.94
49827;BME280;35715;51.570;6.036;2023-06-22T12:30:41;101393.19;;;22.73;90.29
49827;BME280;35715;51.570;6.036;2023-06-22T12:33:06;101389.00;;;22.81;89.70
49827;BME280;35715;51.570;6.036;2023-06-22T12:35:43;101379.81;;;22.99;91.28
49827;BME280;35715;51.570;6.036;2023-06-22T12:38:10;101367.09;;;23.16;90.52
49827;BME280;35715;51.570;6.036;2023-06-22T12:40:36;101371.78;;;23.28;90.72
49827;BME280;35715;51.570;6.036;2023-06-22T12:43:01;101368.56;;;23.39;90.89
49827;BME280;35715;51.570;6.036;2023-06-22T12:45:35;101364.28;;;23.45;88.46
49827;BME280;35715;51.570;6.036;2023-06-22T12:48:01;101363.47;;;23.47;89.86
49827;BME280;35715;51.570;6.036;2023-06-22T12:50:26;101352.44;;;23.26;87.58
49827;BME280;35715;51.570;6.036;2023-06-22T12:52:51;101343.38;;;23.14;88.92
49827;BME280;35715;51.570;6.036;2023-06-22T12:55:24;101357.25;;;23.09;88.45
49827;BME280;35715;51.570;6.036;2023-06-22T12:57:49;101353.72;;;23.08;89.75
49827;BME280;35715;51.570;6.036;2023-06-22T13:00:15;101353.84;;;23.11;89.19
49827;BME280;35715;51.570;6.036;2023-06-22T13:02:41;101346.53;;;23.01;88.52